Terminal Aerodrome Forecast
Issued by NWS Wakefield, VA

Home | Current Version | Previous Version | Text Only | Print | Product List | Glossary On
Versions: 1 2 3 4 5 6 7 8 9 10 11 12 13
000
FTUS41 KAKQ 211124
TAFRIC
TAF
KRIC 211124Z 2112/2212 22005KT P6SM SKC
     FM211400 VRB03KT P6SM SCT050
     FM211800 20005KT P6SM SCT150=

USA.gov is the U.S. government's official web portal to all federal, state and local government web resources and services.